Uacc Ibn Sina — 9HTT9 — position and weather

sailwx.info

Track history (hours):
 
Tides and Currents Weather Stations Pressure Air Temp Water Temp Dewpoint Dewpoint Depression Visibility Wind Speed Wind Dir Waves Ship Positions

Uacc Ibn Sina

Last reported at 2018-Feb-05 11:37 UTC. Time now 2018-Feb-20 04:09 UTC.
Position N 01°19' E 103°20'.
Warning: this ship's position is 14 days out of date.

Length 228 m; draft 8.7 m.

Type: Ship (hazmat cat A). MMSI: 249497000.

Date/timePositionNaut miles runAvg speedWind from/ knotsBaromVisibWave heightAir tempDewpointWater temp
2018-Feb-05 11:37N 01°19' E 103°20'213.6
2018-Feb-05 11:29N 01°17' E 103°22'712.3
2018-Feb-05 10:56N 01°14' E 103°27'11 7.2
2018-Feb-05 09:27N 01°10' E 103°37'0 0.2
2018-Feb-05 08:57N 01°10' E 103°37'0 0.1
2018-Feb-05 08:21N 01°10' E 103°37'0 0.2
2018-Feb-05 07:57N 01°10' E 103°37'0 0.0
2018-Feb-05 07:30N 01°10' E 103°37'0 0.1
2018-Feb-05 06:57N 01°10' E 103°37'0 0.1
2018-Feb-05 06:30N 01°10' E 103°37'0 0.0
2018-Feb-05 05:27N 01°10' E 103°37'0 0.0
2018-Feb-05 04:57N 01°10' E 103°37'0 0.2
2018-Feb-05 04:27N 01°10' E 103°37'0 0.1
2018-Feb-05 03:48N 01°10' E 103°37'0 0.8
2018-Feb-05 03:27N 01°10' E 103°37'2 5.4
2018-Feb-05 03:00N 01°11' E 103°40'611.4
2018-Feb-05 02:30N 01°09' E 103°45'714.4
2018-Feb-05 02:00N 01°12' E 103°51'4 7.9
2018-Feb-05 01:29N 01°15' E 103°54'1 0.1
2018-Feb-04 14:49N 01°15' E 103°54'1 2.3
2018-Feb-04 14:30N 01°15' E 103°54'2 4.6
2018-Feb-04 14:00N 01°15' E 103°56'3 6.5
2018-Feb-04 13:29N 01°15' E 103°60'  
2018-Jan-29 07:10N 23°12' E 119°51'612.5
2018-Jan-29 06:43N 23°17' E 119°52'512.6
2018-Jan-29 06:19N 23°22' E 119°52'413.1
2018-Jan-29 06:00N 23°26' E 119°52'813.7
2018-Jan-29 05:24N 23°34' E 119°54'  
2018-Jan-26 15:48N 23°37' E 119°53'2 5.3
2018-Jan-26 15:26N 23°35' E 119°53'5 5.0
2018-Jan-26 14:28N 23°30' E 119°52'3 4.8
2018-Jan-26 13:54N 23°28' E 119°52'2 4.7
2018-Jan-26 13:30N 23°26' E 119°52'2 4.6
2018-Jan-26 13:00N 23°24' E 119°52'  
Track history (hours):
 
Tides and Currents Weather Stations Pressure Air Temp Water Temp Dewpoint Dewpoint Depression Visibility Wind Speed Wind Dir Waves Ship Positions

Uacc Ibn Sina

Last reported at 2018-Feb-05 11:37 UTC. Time now 2018-Feb-20 04:09 UTC.
Position N 01°19' E 103°20'.
Warning: this ship's position is 14 days out of date.

Length 228 m; draft 8.7 m.

Type: Ship (hazmat cat A). MMSI: 249497000.

Date/timePositionNaut miles runAvg speedWind from/ knotsBaromVisibWave heightAir tempDewpointWater temp
2018-Feb-05 11:37N 01°19' E 103°20'213.6
2018-Feb-05 11:29N 01°17' E 103°22'712.3
2018-Feb-05 10:56N 01°14' E 103°27'11 7.2
2018-Feb-05 09:27N 01°10' E 103°37'0 0.2
2018-Feb-05 08:57N 01°10' E 103°37'0 0.1
2018-Feb-05 08:21N 01°10' E 103°37'0 0.2
2018-Feb-05 07:57N 01°10' E 103°37'0 0.0
2018-Feb-05 07:30N 01°10' E 103°37'0 0.1
2018-Feb-05 06:57N 01°10' E 103°37'0 0.1
2018-Feb-05 06:30N 01°10' E 103°37'0 0.0
2018-Feb-05 05:27N 01°10' E 103°37'0 0.0
2018-Feb-05 04:57N 01°10' E 103°37'0 0.2
2018-Feb-05 04:27N 01°10' E 103°37'0 0.1
2018-Feb-05 03:48N 01°10' E 103°37'0 0.8
2018-Feb-05 03:27N 01°10' E 103°37'2 5.4
2018-Feb-05 03:00N 01°11' E 103°40'611.4
2018-Feb-05 02:30N 01°09' E 103°45'714.4
2018-Feb-05 02:00N 01°12' E 103°51'4 7.9
2018-Feb-05 01:29N 01°15' E 103°54'1 0.1
2018-Feb-04 14:49N 01°15' E 103°54'1 2.3
2018-Feb-04 14:30N 01°15' E 103°54'2 4.6
2018-Feb-04 14:00N 01°15' E 103°56'3 6.5
2018-Feb-04 13:29N 01°15' E 103°60'  
2018-Jan-29 07:10N 23°12' E 119°51'612.5
2018-Jan-29 06:43N 23°17' E 119°52'512.6
2018-Jan-29 06:19N 23°22' E 119°52'413.1
2018-Jan-29 06:00N 23°26' E 119°52'813.7
2018-Jan-29 05:24N 23°34' E 119°54'  
2018-Jan-26 15:48N 23°37' E 119°53'2 5.3
2018-Jan-26 15:26N 23°35' E 119°53'5 5.0
2018-Jan-26 14:28N 23°30' E 119°52'3 4.8
2018-Jan-26 13:54N 23°28' E 119°52'2 4.7
2018-Jan-26 13:30N 23°26' E 119°52'2 4.6
2018-Jan-26 13:00N 23°24' E 119°52'  

Dump ship's entire track history